This is the latest recevied weather packets stored in our database for station/object KI7CSN-13. If no packets are shown the sender has not sent any weather packets the latest 10 day(s).
| Time | Temp. | Humidity | Pressure | Rain* | Wind** | Luminosity | Snow |
|---|---|---|---|---|---|---|---|
| 1777235886 | 12.22° C | 52% | 977.8 hPa | 0 mm | - | - | - |
| 1777235585 | 12.22° C | 52% | 977.8 hPa | 0 mm | - | - | - |
| 1777235285 | 12.22° C | 52% | 977.8 hPa | 0 mm | - | - | - |
| 1777234986 | 12.78° C | 51% | 977.8 hPa | 0 mm | - | - | - |
| 1777234685 | 12.22° C | 54% | 977.8 hPa | 0 mm | - | - | - |
| 1777234385 | 11.67° C | 57% | 977.8 hPa | 0 mm | - | - | - |
| 1777234086 | 11.67° C | 55% | 977.7 hPa | 0 mm | - | - | - |
| 1777233785 | 12.22° C | 53% | 977.8 hPa | 0 mm | - | - | - |
| 1777233486 | 12.22° C | 52% | 977.7 hPa | 0 mm | - | - | - |
| 1777233185 | 12.22° C | 52% | 977.7 hPa | 0 mm | - | - | - |
| 1777232886 | 12.22° C | 51% | 977.6 hPa | 0 mm | - | - | - |
| 1777232586 | 12.22° C | 51% | 977.6 hPa | 0 mm | - | - | - |
| 1777232286 | 12.22° C | 51% | 977.7 hPa | 0 mm | - | - | - |
| 1777231986 | 12.78° C | 46% | 977.7 hPa | 0 mm | - | - | - |
| 1777231686 | 12.78° C | 46% | 977.7 hPa | 0 mm | - | - | - |
| 1777231385 | 13.33° C | 46% | 977.7 hPa | 0 mm | - | - | - |
| 1777231086 | 12.78° C | 46% | 977.8 hPa | 0 mm | - | - | - |
| 1777230785 | 12.22° C | 48% | 977.7 hPa | 0 mm | - | - | - |
| 1777230485 | 11.67° C | 48% | 977.8 hPa | 0 mm | - | - | - |
| 1777230186 | 12.22° C | 47% | 977.8 hPa | 0 mm | - | - | - |
| 1777229886 | 12.22° C | 48% | 977.8 hPa | 0 mm | - | - | - |
| 1777229586 | 12.22° C | 49% | 977.8 hPa | 0 mm | - | - | - |
| 1777229286 | 13.33° C | 45% | 977.8 hPa | 0 mm | - | - | - |
| 1777228986 | 12.78° C | 46% | 977.8 hPa | 0 mm | - | - | - |
| 1777228686 | 12.22° C | 46% | 977.9 hPa | 0 mm | - | - | - |
* Rain latest hour (hover to see other rain measurements)
** Current wind speed in m/s (hover to see current wind gust speed)